createdAt,value
2018-09-11T00:01:27.541Z,1.60
2018-09-11T00:04:32.135Z,1.80
2018-09-11T00:07:36.491Z,2.17
2018-09-11T00:10:40.994Z,1.98
2018-09-11T00:13:45.597Z,4.13
2018-09-11T00:16:51.669Z,3.60
2018-09-11T00:19:56.019Z,3.33
2018-09-11T00:23:00.549Z,3.90
2018-09-11T00:26:05.603Z,3.07
2018-09-11T00:29:10.011Z,2.53
2018-09-11T00:32:14.764Z,2.50
2018-09-11T00:35:19.156Z,3.00
2018-09-11T00:38:23.622Z,2.10
2018-09-11T00:41:28.346Z,2.47
2018-09-11T00:44:33.045Z,2.00
2018-09-11T00:47:37.497Z,2.30
2018-09-11T00:50:42.306Z,1.77
2018-09-11T00:53:46.787Z,1.95
2018-09-11T00:56:51.029Z,1.60
2018-09-11T00:59:55.632Z,1.80
2018-09-11T01:03:00.128Z,1.93
2018-09-11T01:06:04.520Z,2.00
2018-09-11T01:09:10.205Z,1.83
2018-09-11T01:12:14.582Z,1.83
2018-09-11T01:15:19.946Z,1.83
2018-09-11T01:18:24.358Z,1.90
2018-09-11T01:21:28.758Z,1.87
2018-09-11T01:24:33.302Z,1.83
2018-09-11T01:27:37.741Z,1.97
2018-09-11T01:30:42.149Z,1.87
2018-09-11T01:33:46.782Z,1.47
2018-09-11T01:36:51.186Z,1.73
2018-09-11T01:39:57.218Z,1.73
2018-09-11T01:43:01.608Z,1.60
2018-09-11T01:46:05.956Z,1.70
2018-09-11T01:49:10.609Z,2.90
2018-09-11T01:52:14.954Z,4.13
2018-09-11T01:55:19.337Z,3.87
2018-09-11T01:58:23.669Z,4.27
2018-09-11T02:01:28.062Z,3.10
2018-09-11T02:04:32.569Z,2.70
2018-09-11T02:07:37.588Z,2.20
2018-09-11T02:10:42.031Z,2.35
2018-09-11T02:13:46.349Z,1.90
2018-09-11T02:16:51.137Z,2.07
2018-09-11T02:19:55.602Z,1.93
2018-09-11T02:22:59.932Z,1.97
2018-09-11T02:26:04.268Z,1.83
2018-09-11T02:29:09.071Z,2.23
2018-09-11T02:32:13.505Z,1.70
2018-09-11T02:35:17.871Z,2.05
2018-09-11T02:38:23.258Z,2.10
2018-09-11T02:41:27.690Z,1.90
2018-09-11T02:44:32.246Z,2.03
2018-09-11T02:47:36.637Z,1.90
2018-09-11T02:50:41.069Z,2.10
2018-09-11T02:53:45.794Z,2.73
2018-09-11T02:56:50.186Z,2.53
2018-09-11T02:59:54.743Z,2.53
2018-09-11T03:02:59.093Z,3.77
2018-09-11T03:06:03.606Z,3.00
2018-09-11T03:09:07.962Z,2.03
2018-09-11T03:12:12.413Z,1.87
2018-09-11T03:15:17.539Z,2.60
2018-09-11T03:18:21.949Z,2.43
2018-09-11T03:21:26.354Z,2.00
2018-09-11T03:24:30.834Z,2.17
2018-09-11T03:27:35.152Z,1.70
2018-09-11T03:30:39.541Z,2.30
2018-09-11T03:33:44.095Z,2.13
2018-09-11T03:36:48.512Z,2.43
2018-09-11T03:39:52.879Z,2.10
2018-09-11T03:42:57.876Z,2.53
2018-09-11T03:46:02.416Z,3.43
2018-09-11T03:49:06.903Z,2.13
2018-09-11T03:52:11.767Z,2.70
2018-09-11T03:55:16.106Z,1.80
2018-09-11T03:58:20.551Z,1.80
2018-09-11T04:01:25.037Z,2.50
2018-09-11T04:04:29.389Z,2.33
2018-09-11T04:07:35.054Z,5.00
2018-09-11T04:10:40.255Z,7.53
2018-09-11T04:13:45.085Z,7.53
2018-09-11T04:16:50.140Z,6.67
2018-09-11T04:19:54.580Z,5.10
2018-09-11T04:22:58.918Z,5.40
2018-09-11T04:26:03.646Z,4.80
2018-09-11T04:29:08.180Z,5.53
2018-09-11T04:32:12.877Z,5.30
2018-09-11T04:35:17.273Z,5.13
2018-09-11T04:38:22.749Z,7.90
2018-09-11T04:41:27.519Z,8.70
2018-09-11T04:44:33.419Z,6.15
2018-09-11T04:47:38.011Z,3.33
2018-09-11T04:50:42.896Z,4.00
2018-09-11T04:53:47.245Z,4.07
2018-09-11T04:56:52.093Z,4.60
2018-09-11T04:59:57.365Z,5.80
2018-09-11T05:03:01.943Z,5.77
2018-09-11T05:06:07.091Z,5.90
2018-09-11T05:09:12.246Z,5.50
2018-09-11T05:12:16.582Z,5.07
2018-09-11T05:15:21.075Z,5.42
2018-09-11T05:18:25.425Z,3.87
2018-09-11T05:21:29.893Z,4.40
2018-09-11T05:24:34.372Z,4.03
2018-09-11T05:27:38.956Z,4.27
2018-09-11T05:30:43.529Z,3.77
2018-09-11T05:33:47.903Z,3.30
2018-09-11T05:36:52.864Z,3.20
2018-09-11T05:39:57.297Z,2.70
2018-09-11T05:43:01.869Z,2.70
2018-09-11T05:46:06.472Z,3.00
2018-09-11T05:49:11.461Z,2.60
2018-09-11T05:52:16.122Z,2.40
2018-09-11T05:55:21.026Z,2.77
2018-09-11T05:58:25.435Z,2.67
2018-09-11T06:01:29.829Z,2.83
2018-09-11T06:04:34.374Z,2.77
2018-09-11T06:07:38.810Z,2.97
2018-09-11T06:10:43.117Z,3.23
2018-09-11T06:13:47.525Z,2.27
2018-09-11T06:16:52.011Z,2.30
2018-09-11T06:19:56.346Z,2.10
2018-09-11T06:23:00.733Z,2.40
2018-09-11T06:26:05.601Z,2.58
2018-09-11T06:29:10.022Z,2.30
2018-09-11T06:32:14.788Z,2.10
2018-09-11T06:35:19.218Z,2.27
2018-09-11T06:38:23.715Z,2.00
2018-09-11T06:41:29.024Z,2.47
2018-09-11T06:44:35.262Z,1.80
2018-09-11T06:47:39.577Z,2.20
2018-09-11T06:50:43.999Z,2.00
2018-09-11T06:53:48.379Z,2.07
2018-09-11T06:56:53.093Z,2.53
2018-09-11T06:59:57.520Z,1.73
2018-09-11T07:03:02.027Z,1.60
2018-09-11T07:06:06.876Z,1.70
2018-09-11T07:09:11.925Z,2.07
2018-09-11T07:12:16.530Z,2.20
2018-09-11T07:15:30.774Z,2.00
2018-09-11T07:18:35.169Z,2.03
2018-09-11T07:21:39.562Z,2.00
2018-09-11T07:24:43.985Z,2.07
2018-09-11T07:27:48.320Z,1.80
2018-09-11T07:30:52.935Z,1.80
2018-09-11T07:33:57.458Z,3.57
2018-09-11T07:37:02.062Z,2.63
2018-09-11T07:40:06.818Z,2.00
2018-09-11T07:43:11.194Z,2.00
2018-09-11T07:46:15.561Z,2.50
2018-09-11T07:49:19.953Z,2.50
2018-09-11T07:52:24.501Z,2.27
2018-09-11T07:55:28.910Z,2.07
2018-09-11T07:58:33.271Z,1.97
2018-09-11T08:01:37.853Z,2.10
2018-09-11T08:04:42.350Z,2.00
2018-09-11T08:07:46.745Z,2.37
2018-09-11T08:10:51.138Z,2.60
2018-09-11T08:13:55.519Z,2.40
2018-09-11T08:17:00.336Z,1.90
2018-09-11T08:20:04.800Z,2.40
2018-09-11T08:23:09.174Z,2.47
2018-09-11T08:26:14.397Z,2.33
2018-09-11T08:29:18.817Z,2.37
2018-09-11T08:32:23.245Z,2.30
2018-09-11T08:35:27.901Z,2.20
2018-09-11T08:38:32.258Z,1.97
2018-09-11T08:41:36.955Z,2.07
2018-09-11T08:44:41.790Z,2.10
2018-09-11T08:47:46.281Z,2.03
2018-09-11T08:50:50.733Z,2.30
2018-09-11T08:53:55.193Z,1.90
2018-09-11T08:56:59.606Z,1.93
2018-09-11T09:00:04.233Z,2.10
2018-09-11T09:03:08.900Z,2.03
2018-09-11T09:06:13.493Z,1.73
2018-09-11T09:09:18.034Z,2.13
2018-09-11T09:12:22.413Z,2.30
2018-09-11T09:15:26.980Z,2.23
2018-09-11T09:18:31.428Z,4.13
2018-09-11T09:21:35.814Z,2.00
2018-09-11T09:24:40.272Z,2.27
2018-09-11T09:27:44.758Z,2.20
2018-09-11T09:30:49.312Z,2.30
2018-09-11T09:33:53.949Z,2.10
2018-09-11T09:36:58.364Z,2.00
2018-09-11T09:43:12.360Z,3.20
2018-09-11T09:46:16.867Z,2.13
2018-09-11T09:49:21.258Z,1.90
2018-09-11T09:52:25.616Z,2.00
2018-09-11T09:55:30.029Z,3.10
2018-09-11T09:58:34.611Z,2.20
2018-09-11T10:01:48.363Z,2.13
2018-09-11T10:04:54.805Z,2.17
2018-09-11T10:08:00.147Z,2.23
2018-09-11T10:11:04.759Z,2.47
2018-09-11T10:14:09.316Z,2.00
2018-09-11T10:17:13.709Z,1.80
2018-09-11T10:20:18.762Z,2.20
2018-09-11T10:23:23.162Z,2.30
2018-09-11T10:26:27.662Z,1.60
2018-09-11T10:29:32.402Z,2.13
2018-09-11T10:32:36.797Z,1.80
2018-09-11T10:35:41.318Z,2.07
2018-09-11T10:38:45.769Z,1.87
2018-09-11T10:41:50.561Z,1.80
2018-09-11T10:44:55.003Z,2.20
2018-09-11T10:47:59.281Z,2.30
2018-09-11T10:51:04.290Z,2.43
2018-09-11T10:54:08.757Z,1.90
2018-09-11T10:57:13.241Z,1.90
2018-09-11T11:00:17.865Z,2.33
2018-09-11T11:03:22.540Z,1.93
2018-09-11T11:06:27.156Z,1.70
2018-09-11T11:09:32.612Z,1.80
2018-09-11T11:12:37.125Z,1.90
2018-09-11T11:15:41.556Z,1.90
2018-09-11T11:18:48.575Z,2.03
2018-09-11T11:21:53.249Z,2.23
2018-09-11T11:24:57.860Z,1.90
2018-09-11T11:28:02.573Z,1.80
2018-09-11T11:31:07.476Z,1.80
2018-09-11T11:34:12.161Z,1.80
2018-09-11T11:37:16.683Z,2.03
2018-09-11T11:40:21.609Z,1.70
2018-09-11T11:43:26.033Z,2.67
2018-09-11T11:46:30.503Z,4.33
2018-09-11T11:49:35.071Z,3.83
2018-09-11T11:52:39.535Z,1.53
2018-09-11T11:55:43.973Z,1.60
2018-09-11T11:58:48.963Z,1.80
2018-09-11T12:01:53.415Z,1.70
2018-09-11T12:04:57.952Z,2.00
2018-09-11T12:08:02.562Z,1.67
2018-09-11T12:11:07.208Z,2.57
2018-09-11T12:14:11.662Z,2.00
2018-09-11T12:17:16.920Z,2.07
2018-09-11T12:20:21.656Z,2.10
2018-09-11T12:23:26.970Z,1.43
2018-09-11T12:26:31.624Z,2.30
2018-09-11T12:29:36.104Z,1.80
2018-09-11T12:32:40.597Z,2.10
2018-09-11T12:35:45.374Z,1.80
2018-09-11T12:38:49.873Z,1.97
2018-09-11T12:41:54.413Z,2.10
2018-09-11T12:44:58.937Z,1.83
2018-09-11T12:48:03.999Z,2.00
2018-09-11T12:51:08.129Z,1.60
2018-09-11T12:54:12.820Z,1.70
2018-09-11T12:57:18.523Z,2.20
2018-09-11T13:00:23.052Z,1.87
2018-09-11T13:03:29.462Z,1.93
2018-09-11T13:06:35.239Z,2.10
2018-09-11T13:09:40.128Z,1.63
2018-09-11T13:12:44.538Z,1.50
2018-09-11T13:15:49.061Z,2.20
2018-09-11T13:18:53.550Z,1.70
2018-09-11T13:21:59.011Z,2.30
2018-09-11T13:25:03.626Z,1.83
2018-09-11T13:28:08.247Z,1.97
2018-09-11T13:31:13.599Z,1.87
2018-09-11T13:34:18.741Z,1.77
2018-09-11T13:37:24.974Z,2.07
2018-09-11T13:40:30.742Z,2.10
2018-09-11T13:43:36.198Z,2.03
2018-09-11T13:46:41.403Z,2.00
2018-09-11T13:49:46.592Z,1.90
2018-09-11T13:52:52.400Z,1.80
2018-09-11T13:55:57.112Z,1.80
2018-09-11T13:59:01.760Z,2.10
2018-09-11T14:02:07.582Z,2.13
2018-09-11T14:05:12.666Z,1.90
2018-09-11T14:08:17.318Z,2.20
2018-09-11T14:11:22.283Z,2.33
2018-09-11T14:14:26.876Z,2.20
2018-09-11T14:17:31.473Z,2.13
2018-09-11T14:20:36.265Z,1.93
2018-09-11T14:23:40.740Z,1.80
2018-09-11T14:26:46.458Z,1.67
2018-09-11T14:29:51.821Z,1.60
2018-09-11T14:32:59.121Z,1.60
2018-09-11T14:36:03.680Z,1.77
2018-09-11T14:39:11.065Z,1.73
2018-09-11T14:42:16.350Z,1.73
2018-09-11T14:45:22.360Z,1.80
2018-09-11T14:48:27.012Z,1.83
2018-09-11T14:51:31.542Z,1.87
2018-09-11T14:54:36.403Z,1.43
2018-09-11T14:57:41.602Z,1.30
2018-09-11T15:00:46.195Z,1.70
2018-09-11T15:03:50.685Z,1.40
2018-09-11T15:06:55.153Z,1.63
2018-09-11T15:09:59.775Z,1.57
2018-09-11T15:13:04.740Z,1.73
2018-09-11T15:16:09.384Z,1.57
2018-09-11T15:19:14.436Z,1.70
2018-09-11T15:22:18.901Z,1.20
2018-09-11T15:25:23.260Z,2.00
2018-09-11T15:28:27.828Z,1.80
2018-09-11T15:31:32.426Z,1.50
2018-09-11T15:34:37.711Z,1.97
2018-09-11T15:37:42.714Z,1.57
2018-09-11T15:40:47.339Z,1.60
2018-09-11T15:43:52.992Z,1.30
2018-09-11T15:46:58.265Z,1.80
2018-09-11T15:50:02.985Z,1.53
2018-09-11T15:53:08.270Z,1.50
2018-09-11T15:56:12.961Z,1.83
2018-09-11T15:59:18.812Z,1.60
2018-09-11T16:02:23.847Z,1.70
2018-09-11T16:05:28.397Z,1.50
2018-09-11T16:08:32.947Z,2.33
2018-09-11T16:11:37.535Z,1.77
2018-09-11T16:14:42.084Z,2.07
2018-09-11T16:17:46.843Z,1.63
2018-09-11T16:20:52.063Z,1.73
2018-09-11T16:23:56.734Z,1.90
2018-09-11T16:27:01.134Z,1.50
2018-09-11T16:30:07.218Z,1.50
2018-09-11T16:33:12.666Z,1.90
2018-09-11T16:36:18.595Z,1.77
2018-09-11T16:39:23.940Z,1.57
2018-09-11T16:42:30.065Z,1.70
2018-09-11T16:45:35.333Z,1.60
2018-09-11T16:48:40.400Z,1.73
2018-09-11T16:51:44.938Z,1.87
2018-09-11T16:54:49.524Z,1.70
2018-09-11T16:57:54.061Z,1.67
2018-09-11T17:00:59.000Z,1.53
2018-09-11T17:04:03.559Z,2.10
2018-09-11T17:07:07.939Z,1.60
2018-09-11T17:10:12.641Z,1.80
2018-09-11T17:13:17.336Z,1.60
2018-09-11T17:16:21.869Z,1.90
2018-09-11T17:19:26.488Z,1.23
2018-09-11T17:22:31.630Z,1.33
2018-09-11T17:25:36.678Z,1.70
2018-09-11T17:28:41.416Z,1.70
2018-09-11T17:31:46.698Z,2.30
2018-09-11T17:34:52.204Z,2.00
2018-09-11T17:37:57.368Z,2.30
2018-09-11T17:41:01.776Z,2.07
2018-09-11T17:44:06.283Z,2.30
2018-09-11T17:47:10.700Z,2.20
2018-09-11T17:50:15.024Z,2.53
2018-09-11T17:53:19.581Z,2.53
2018-09-11T17:56:24.161Z,2.97
2018-09-11T17:59:28.564Z,6.00
2018-09-11T18:02:34.407Z,6.03
2018-09-11T18:05:39.081Z,4.67
2018-09-11T18:08:43.864Z,3.60
2018-09-11T18:11:48.290Z,3.60
2018-09-11T18:14:53.074Z,3.27
2018-09-11T18:17:57.501Z,3.73
2018-09-11T18:21:01.906Z,4.70
2018-09-11T18:24:06.641Z,4.50
2018-09-11T18:27:11.141Z,4.10
2018-09-11T18:30:15.714Z,5.00
2018-09-11T18:33:20.178Z,7.23
2018-09-11T18:36:24.741Z,6.83
2018-09-11T18:39:29.119Z,5.70
2018-09-11T18:42:33.602Z,4.03
2018-09-11T18:45:39.006Z,3.50
2018-09-11T18:48:43.522Z,4.20
2018-09-11T18:51:48.301Z,4.63
2018-09-11T18:54:52.961Z,5.00
2018-09-11T18:57:57.373Z,6.17
2018-09-11T19:01:01.731Z,6.23
2018-09-11T19:04:06.737Z,5.83
2018-09-11T19:07:11.600Z,5.47
2018-09-11T19:10:18.907Z,5.77
2018-09-11T19:13:26.050Z,5.20
2018-09-11T19:16:30.631Z,5.37
2018-09-11T19:19:35.593Z,4.93
2018-09-11T19:22:41.773Z,4.77
2018-09-11T19:25:46.536Z,4.60
2018-09-11T19:28:51.038Z,8.07
2018-09-11T19:31:55.542Z,6.30
2018-09-11T19:35:00.116Z,6.07
2018-09-11T19:38:05.679Z,6.60
2018-09-11T19:41:10.525Z,7.90
2018-09-11T19:44:14.952Z,7.80
2018-09-11T19:47:19.393Z,7.27
2018-09-11T19:50:23.802Z,6.83
2018-09-11T19:53:28.551Z,11.03
2018-09-11T19:56:33.123Z,8.63
2018-09-11T19:59:37.817Z,4.80
2018-09-11T20:02:42.204Z,3.63
2018-09-11T20:05:46.710Z,3.53
2018-09-11T20:08:51.609Z,3.60
2018-09-11T20:11:56.480Z,4.40
2018-09-11T20:15:01.115Z,4.60
2018-09-11T20:18:05.804Z,3.67
2018-09-11T20:21:34.355Z,3.40
2018-09-11T20:24:39.341Z,3.77
2018-09-11T20:27:44.426Z,3.97
2018-09-11T20:30:48.932Z,3.77
2018-09-11T20:33:53.543Z,3.73
2018-09-11T20:36:58.148Z,3.70
2018-09-11T20:40:04.996Z,3.70
2018-09-11T20:43:09.907Z,4.00
2018-09-11T20:46:15.012Z,7.00
2018-09-11T20:49:19.373Z,7.00
2018-09-11T20:52:23.850Z,6.17
2018-09-11T20:55:28.694Z,5.30
2018-09-11T20:58:32.877Z,5.43
2018-09-11T21:01:37.304Z,4.40
2018-09-11T21:04:42.573Z,4.83
2018-09-11T21:07:47.149Z,6.73
2018-09-11T21:10:51.596Z,5.53
2018-09-11T21:13:56.063Z,4.23
2018-09-11T21:17:00.427Z,6.10
2018-09-11T21:20:04.972Z,8.53
2018-09-11T21:23:09.872Z,6.80
2018-09-11T21:26:14.627Z,6.20
2018-09-11T21:29:19.584Z,5.67
2018-09-11T21:32:24.198Z,5.53
2018-09-11T21:35:29.258Z,4.97
2018-09-11T21:38:33.676Z,5.90
2018-09-11T21:41:38.118Z,5.30
2018-09-11T21:44:43.693Z,4.23
2018-09-11T21:47:48.312Z,3.87
2018-09-11T21:50:52.837Z,4.10
2018-09-11T21:53:57.321Z,4.03
2018-09-11T21:57:02.044Z,3.43
2018-09-11T22:00:10.097Z,4.03
2018-09-11T22:03:14.453Z,6.63
2018-09-11T22:06:19.031Z,6.37
2018-09-11T22:09:23.800Z,7.05
2018-09-11T22:12:28.427Z,6.63
2018-09-11T22:15:33.498Z,8.40
2018-09-11T22:18:39.181Z,9.02
2018-09-11T22:21:43.594Z,6.97
2018-09-11T22:24:47.981Z,5.27
2018-09-11T22:27:59.216Z,3.80
2018-09-11T22:31:04.008Z,3.90
2018-09-11T22:34:08.519Z,4.03
2018-09-11T22:37:12.981Z,3.87
2018-09-11T22:40:17.428Z,4.78
2018-09-11T22:43:21.838Z,4.67
2018-09-11T22:46:26.688Z,4.53
2018-09-11T22:49:31.032Z,4.50
2018-09-11T22:52:35.890Z,3.60
2018-09-11T22:55:40.536Z,3.30
2018-09-11T22:58:51.145Z,3.55
2018-09-11T23:01:55.501Z,3.83
2018-09-11T23:04:59.940Z,3.77
2018-09-11T23:08:04.894Z,3.57
2018-09-11T23:11:09.549Z,4.17
2018-09-11T23:14:13.910Z,5.40
2018-09-11T23:17:18.345Z,7.33
2018-09-11T23:20:22.719Z,8.30
2018-09-11T23:23:29.377Z,7.70
2018-09-11T23:26:33.749Z,6.83
2018-09-11T23:29:38.087Z,8.00
2018-09-11T23:32:42.468Z,7.23
2018-09-11T23:35:46.826Z,8.07
2018-09-11T23:38:51.446Z,8.20
2018-09-11T23:41:56.091Z,7.60
2018-09-11T23:45:00.507Z,6.90
2018-09-11T23:48:04.926Z,4.50
2018-09-11T23:51:09.419Z,4.47
2018-09-11T23:54:14.229Z,5.00
2018-09-11T23:57:18.603Z,5.10
